createdAt,value
2022-09-29T00:00:29.170Z,7.30
2022-09-29T00:02:56.033Z,9.40
2022-09-29T00:05:23.056Z,8.20
2022-09-29T00:07:49.874Z,8.27
2022-09-29T00:10:16.696Z,7.18
2022-09-29T00:12:43.522Z,8.07
2022-09-29T00:15:10.758Z,7.15
2022-09-29T00:17:37.503Z,6.78
2022-09-29T00:20:04.750Z,6.63
2022-09-29T00:22:31.675Z,8.02
2022-09-29T00:24:58.498Z,7.13
2022-09-29T00:27:25.500Z,6.93
2022-09-29T00:29:52.661Z,6.53
2022-09-29T00:32:19.457Z,9.82
2022-09-29T00:34:46.186Z,8.30
2022-09-29T00:37:13.692Z,6.28
2022-09-29T00:39:40.777Z,8.13
2022-09-29T00:42:09.375Z,8.20
2022-09-29T00:44:54.360Z,7.55
2022-09-29T00:47:23.026Z,7.50
2022-09-29T00:49:55.800Z,6.93
2022-09-29T00:52:40.583Z,7.57
2022-09-29T00:55:28.215Z,6.50
2022-09-29T00:57:59.869Z,6.40
2022-09-29T01:00:26.905Z,6.72
2022-09-29T01:03:08.658Z,7.50
2022-09-29T01:05:40.594Z,6.88
2022-09-29T01:08:26.907Z,6.65
2022-09-29T01:10:54.149Z,7.68
2022-09-29T01:13:22.312Z,6.68
2022-09-29T01:15:49.133Z,6.65
2022-09-29T01:18:16.059Z,6.65
2022-09-29T01:20:58.994Z,7.13
2022-09-29T01:23:46.051Z,6.15
2022-09-29T01:26:25.881Z,7.65
2022-09-29T01:29:54.316Z,7.72
2022-09-29T01:32:39.371Z,7.18
2022-09-29T01:35:39.946Z,8.95
2022-09-29T01:38:28.167Z,5.95
2022-09-29T01:41:03.908Z,9.63
2022-09-29T01:43:56.078Z,7.45
2022-09-29T01:46:37.715Z,7.15
2022-09-29T01:49:06.147Z,6.10
2022-09-29T01:51:41.559Z,8.00
2022-09-29T01:54:22.729Z,11.70
2022-09-29T01:57:00.321Z,7.18
2022-09-29T01:59:44.368Z,6.53
2022-09-29T02:02:27.879Z,8.68
2022-09-29T02:04:59.795Z,6.18
2022-09-29T02:07:36.593Z,7.13
2022-09-29T02:10:32.527Z,6.65
2022-09-29T02:13:03.077Z,6.45
2022-09-29T02:15:33.527Z,9.50
2022-09-29T02:18:07.117Z,8.27
2022-09-29T02:20:34.365Z,7.88
2022-09-29T02:23:01.455Z,6.65
2022-09-29T02:25:28.513Z,7.93
2022-09-29T02:27:55.526Z,9.52
2022-09-29T02:30:22.289Z,7.10
2022-09-29T02:32:49.060Z,7.43
2022-09-29T02:35:16.297Z,6.60
2022-09-29T02:37:48.866Z,8.00
2022-09-29T02:43:30.353Z,7.85
2022-09-29T02:46:22.849Z,6.63
2022-09-29T02:49:21.804Z,7.93
2022-09-29T02:51:56.768Z,8.40
2022-09-29T02:54:42.628Z,8.98
2022-09-29T02:57:33.814Z,10.70
2022-09-29T03:00:14.953Z,8.25
2022-09-29T03:02:43.116Z,7.32
2022-09-29T03:05:13.198Z,7.82
2022-09-29T03:07:40.318Z,7.82
2022-09-29T03:10:08.844Z,9.10
2022-09-29T03:12:36.890Z,11.00
2022-09-29T03:15:04.627Z,9.18
2022-09-29T03:17:31.450Z,8.63
2022-09-29T03:19:58.182Z,7.18
2022-09-29T03:22:25.281Z,6.85
2022-09-29T03:24:52.096Z,9.90
2022-09-29T03:27:18.933Z,7.55
2022-09-29T03:29:45.676Z,6.55
2022-09-29T03:32:12.442Z,11.20
2022-09-29T03:34:39.252Z,8.15
2022-09-29T03:37:06.023Z,16.80
2022-09-29T03:39:32.785Z,7.75
2022-09-29T03:41:59.504Z,9.38
2022-09-29T03:44:26.340Z,10.02
2022-09-29T03:46:53.091Z,7.80
2022-09-29T03:49:20.004Z,8.20
2022-09-29T03:51:46.861Z,7.00
2022-09-29T03:54:13.647Z,6.82
2022-09-29T03:56:40.385Z,9.00
2022-09-29T03:59:09.363Z,7.78
2022-09-29T04:01:38.233Z,9.57
2022-09-29T04:04:06.986Z,7.90
2022-09-29T04:06:33.987Z,7.50
2022-09-29T04:09:00.740Z,8.48
2022-09-29T04:11:27.855Z,7.90
2022-09-29T04:13:54.737Z,7.60
2022-09-29T04:16:21.633Z,12.50
2022-09-29T04:18:48.470Z,8.80
2022-09-29T04:21:16.779Z,13.38
2022-09-29T04:23:43.628Z,8.57
2022-09-29T04:26:10.729Z,9.15
2022-09-29T04:28:38.004Z,9.43
2022-09-29T04:31:05.567Z,11.50
2022-09-29T04:33:32.631Z,9.90
2022-09-29T04:36:00.032Z,13.07
2022-09-29T04:38:27.081Z,12.80
2022-09-29T04:40:53.955Z,7.97
2022-09-29T04:43:20.769Z,9.82
2022-09-29T04:45:47.648Z,7.95
2022-09-29T04:48:14.521Z,9.43
2022-09-29T04:50:41.553Z,9.57
2022-09-29T04:53:09.688Z,8.63
2022-09-29T04:55:38.128Z,7.65
2022-09-29T04:58:05.159Z,12.05
2022-09-29T05:00:32.819Z,9.40
2022-09-29T05:03:00.860Z,12.82
2022-09-29T05:05:27.766Z,12.02
2022-09-29T05:07:54.552Z,8.98
2022-09-29T05:10:21.333Z,13.05
2022-09-29T05:12:50.265Z,9.40
2022-09-29T05:15:22.133Z,9.65
2022-09-29T05:17:51.769Z,8.73
2022-09-29T05:20:18.540Z,9.45
2022-09-29T05:22:45.306Z,10.10
2022-09-29T05:25:12.138Z,11.27
2022-09-29T05:27:39.232Z,7.47
2022-09-29T05:30:06.737Z,8.02
2022-09-29T05:32:33.456Z,11.43
2022-09-29T05:35:00.921Z,9.20
2022-09-29T05:37:27.662Z,9.43
2022-09-29T05:39:54.409Z,15.05
2022-09-29T05:42:21.285Z,10.20
2022-09-29T05:44:48.088Z,12.20
2022-09-29T05:47:14.841Z,9.13
2022-09-29T05:49:42.246Z,11.35
2022-09-29T05:52:08.982Z,9.10
2022-09-29T05:54:35.717Z,11.80
2022-09-29T05:57:02.452Z,11.60
2022-09-29T05:59:29.229Z,10.95
2022-09-29T06:01:56.026Z,12.32
2022-09-29T06:04:22.831Z,16.08
2022-09-29T06:06:49.590Z,13.43
2022-09-29T06:09:16.477Z,13.40
2022-09-29T06:11:43.302Z,11.02
2022-09-29T06:14:10.034Z,13.18
2022-09-29T06:16:36.985Z,19.52
2022-09-29T06:19:04.850Z,15.30
2022-09-29T06:21:34.667Z,10.00
2022-09-29T06:24:01.669Z,11.63
2022-09-29T06:26:28.685Z,12.00
2022-09-29T06:28:56.590Z,15.75
2022-09-29T06:31:26.449Z,15.82
2022-09-29T06:33:56.140Z,15.70
2022-09-29T06:36:55.501Z,21.35
2022-09-29T06:39:22.336Z,27.15
2022-09-29T06:41:53.411Z,17.58
2022-09-29T06:44:25.474Z,21.90
2022-09-29T06:46:53.006Z,18.63
2022-09-29T06:49:20.980Z,15.27
2022-09-29T06:51:47.990Z,18.85
2022-09-29T06:54:18.106Z,18.98
2022-09-29T06:56:52.356Z,18.27
2022-09-29T06:59:19.731Z,23.83
2022-09-29T07:01:50.603Z,17.63
2022-09-29T07:04:20.130Z,17.50
2022-09-29T07:06:47.433Z,17.63
2022-09-29T07:09:16.361Z,19.02
2022-09-29T07:11:46.567Z,17.33
2022-09-29T07:14:18.293Z,18.40
2022-09-29T07:16:48.364Z,19.97
2022-09-29T07:19:16.833Z,21.83
2022-09-29T07:21:44.123Z,21.30
2022-09-29T07:24:11.324Z,21.05
2022-09-29T07:26:38.177Z,18.83
2022-09-29T07:29:05.025Z,26.25
2022-09-29T07:31:43.493Z,19.52
2022-09-29T07:34:14.441Z,25.83
2022-09-29T07:36:41.185Z,22.00
2022-09-29T07:39:08.018Z,23.88
2022-09-29T07:41:34.720Z,26.42
2022-09-29T07:44:01.633Z,22.15
2022-09-29T07:46:28.469Z,24.40
2022-09-29T07:48:55.327Z,20.13
2022-09-29T07:51:22.086Z,22.45
2022-09-29T07:53:48.977Z,20.90
2022-09-29T07:56:18.991Z,23.52
2022-09-29T07:58:50.157Z,21.77
2022-09-29T08:01:18.548Z,22.58
2022-09-29T08:03:50.129Z,21.42
2022-09-29T08:06:16.936Z,22.65
2022-09-29T08:08:55.488Z,19.58
2022-09-29T08:11:31.612Z,23.95
2022-09-29T08:13:59.175Z,24.15
2022-09-29T08:16:26.459Z,21.17
2022-09-29T08:18:53.300Z,18.52
2022-09-29T08:21:20.138Z,17.77
2022-09-29T08:23:46.889Z,18.27
2022-09-29T08:26:17.002Z,19.08
2022-09-29T08:28:45.236Z,22.88
2022-09-29T08:31:22.960Z,20.85
2022-09-29T08:33:51.586Z,18.50
2022-09-29T08:36:20.219Z,21.10
2022-09-29T08:38:49.368Z,22.88
2022-09-29T08:41:28.585Z,20.67
2022-09-29T08:44:05.185Z,22.13
2022-09-29T08:46:39.795Z,18.90
2022-09-29T08:49:35.693Z,23.70
2022-09-29T08:52:16.414Z,19.50
2022-09-29T08:54:49.140Z,19.48
2022-09-29T08:57:19.264Z,22.50
2022-09-29T08:59:57.646Z,26.83
2022-09-29T09:02:27.344Z,18.77
2022-09-29T09:05:33.968Z,20.23
2022-09-29T09:08:19.975Z,21.20
2022-09-29T09:11:10.727Z,17.38
2022-09-29T09:13:49.514Z,15.95
2022-09-29T09:16:21.505Z,18.77
2022-09-29T09:19:30.840Z,16.00
2022-09-29T09:22:13.348Z,18.50
2022-09-29T09:24:51.716Z,20.25
2022-09-29T09:27:24.283Z,16.15
2022-09-29T09:30:02.470Z,17.98
2022-09-29T09:32:33.855Z,16.52
2022-09-29T09:35:21.269Z,16.95
2022-09-29T09:37:53.830Z,14.30
2022-09-29T09:40:26.983Z,15.55
2022-09-29T09:43:20.585Z,17.17
2022-09-29T09:46:00.895Z,21.35
2022-09-29T09:48:36.668Z,20.38
2022-09-29T09:51:24.462Z,16.98
2022-09-29T09:53:54.976Z,16.63
2022-09-29T09:56:33.852Z,16.40
2022-09-29T09:59:06.601Z,17.13
2022-09-29T10:01:33.547Z,15.82
2022-09-29T10:04:01.138Z,17.63
2022-09-29T10:06:28.314Z,17.85
2022-09-29T10:08:55.217Z,15.00
2022-09-29T10:11:31.835Z,14.80
2022-09-29T10:14:16.776Z,16.95
2022-09-29T10:16:52.876Z,15.52
2022-09-29T10:19:24.604Z,12.20
2022-09-29T10:21:51.411Z,14.05
2022-09-29T10:24:27.657Z,12.27
2022-09-29T10:26:56.547Z,8.95
2022-09-29T10:29:31.519Z,10.80
2022-09-29T10:32:22.087Z,9.38
2022-09-29T10:35:06.059Z,10.18
2022-09-29T10:37:38.670Z,11.32
2022-09-29T10:40:08.460Z,9.15
2022-09-29T10:42:41.162Z,9.30
2022-09-29T10:45:07.849Z,8.02
2022-09-29T10:47:34.661Z,7.97
2022-09-29T10:50:16.906Z,8.02
2022-09-29T10:52:50.761Z,8.20
2022-09-29T10:55:21.428Z,9.75
2022-09-29T10:57:48.854Z,10.23
2022-09-29T11:00:38.684Z,7.13
2022-09-29T11:03:18.640Z,7.82
2022-09-29T11:06:06.337Z,6.70
2022-09-29T11:08:33.770Z,6.20
2022-09-29T11:11:07.239Z,6.18
2022-09-29T11:13:41.054Z,5.03
2022-09-29T11:16:18.546Z,5.53
2022-09-29T11:18:49.723Z,6.40
2022-09-29T11:21:31.265Z,5.03
2022-09-29T11:24:16.091Z,4.18
2022-09-29T11:26:48.715Z,6.30
2022-09-29T11:29:37.186Z,5.13
2022-09-29T11:32:33.958Z,5.05
2022-09-29T11:35:24.856Z,6.55
2022-09-29T11:38:22.789Z,4.43
2022-09-29T11:41:05.325Z,4.65
2022-09-29T11:43:48.075Z,5.03
2022-09-29T11:48:48.904Z,5.75
2022-09-29T11:51:43.582Z,7.45
2022-09-29T11:54:43.918Z,7.32
2022-09-29T11:57:36.072Z,7.70
2022-09-29T12:00:12.032Z,5.38
2022-09-29T12:03:16.678Z,6.88
2022-09-29T12:06:20.632Z,4.53
2022-09-29T12:09:09.279Z,4.07
2022-09-29T12:12:22.612Z,4.55
2022-09-29T12:15:10.017Z,3.40
2022-09-29T12:17:41.965Z,4.85
2022-09-29T12:20:29.398Z,3.50
2022-09-29T12:23:01.243Z,5.38
2022-09-29T12:25:33.489Z,2.85
2022-09-29T12:28:12.673Z,2.85
2022-09-29T12:30:54.576Z,2.30
2022-09-29T12:33:24.703Z,3.15
2022-09-29T12:36:45.991Z,3.65
2022-09-29T12:39:20.452Z,4.22
2022-09-29T12:42:02.594Z,6.18
2022-09-29T12:44:38.350Z,3.30
2022-09-29T12:47:18.777Z,4.63
2022-09-29T12:50:03.883Z,3.55
2022-09-29T12:52:45.003Z,2.70
2022-09-29T12:55:24.368Z,2.35
2022-09-29T12:57:54.666Z,2.38
2022-09-29T13:00:21.629Z,1.52
2022-09-29T13:03:20.387Z,1.58
2022-09-29T13:06:04.938Z,3.35
2022-09-29T13:08:45.708Z,2.08
2022-09-29T13:11:15.477Z,1.58
2022-09-29T13:14:04.732Z,1.67
2022-09-29T13:16:57.046Z,2.15
2022-09-29T13:19:55.663Z,1.10
2022-09-29T13:22:35.051Z,2.90
2022-09-29T13:25:32.373Z,1.80
2022-09-29T13:28:00.380Z,5.15
2022-09-29T13:30:45.787Z,2.70
2022-09-29T13:33:23.713Z,3.78
2022-09-29T13:35:51.774Z,1.25
2022-09-29T13:38:26.531Z,3.78
2022-09-29T13:41:36.508Z,1.67
2022-09-29T13:44:20.559Z,2.00
2022-09-29T13:46:47.624Z,4.65
2022-09-29T13:49:30.509Z,3.13
2022-09-29T13:52:25.863Z,1.20
2022-09-29T13:54:52.790Z,3.60
2022-09-29T13:57:28.046Z,4.53
2022-09-29T13:59:55.304Z,2.83
2022-09-29T14:02:37.103Z,2.28
2022-09-29T14:05:24.139Z,1.70
2022-09-29T14:08:08.248Z,3.78
2022-09-29T14:11:10.274Z,1.70
2022-09-29T14:14:01.152Z,4.35
2022-09-29T14:16:43.657Z,2.10
2022-09-29T14:19:29.218Z,3.67
2022-09-29T14:21:58.584Z,2.42
2022-09-29T14:24:37.465Z,2.15
2022-09-29T14:27:22.975Z,2.10
2022-09-29T14:30:13.977Z,1.55
2022-09-29T14:32:46.761Z,1.52
2022-09-29T14:35:23.202Z,3.67
2022-09-29T14:37:59.180Z,2.50
2022-09-29T14:40:29.300Z,4.43
2022-09-29T14:43:16.201Z,2.67
2022-09-29T14:46:39.544Z,2.88
2022-09-29T14:54:56.858Z,4.25
2022-09-29T14:57:34.750Z,2.75
2022-09-29T15:00:09.531Z,1.70
2022-09-29T15:02:40.788Z,2.42
2022-09-29T15:05:31.381Z,3.25
2022-09-29T15:08:01.725Z,10.43
2022-09-29T15:10:42.835Z,1.75
2022-09-29T15:13:25.204Z,1.38
2022-09-29T15:16:00.508Z,2.05
2022-09-29T15:18:55.385Z,3.50
2022-09-29T15:21:35.231Z,4.05
2022-09-29T15:24:34.529Z,4.40
2022-09-29T15:27:04.224Z,2.80
2022-09-29T15:29:31.309Z,2.42
2022-09-29T15:31:58.301Z,2.75
2022-09-29T15:34:25.657Z,4.10
2022-09-29T15:36:55.256Z,7.22
2022-09-29T15:39:31.826Z,4.80
2022-09-29T15:42:03.663Z,3.58
2022-09-29T15:44:33.627Z,4.70
2022-09-29T15:47:00.999Z,3.85
2022-09-29T15:49:29.171Z,2.10
2022-09-29T15:52:00.571Z,3.83
2022-09-29T15:57:23.470Z,4.10
2022-09-29T15:59:54.832Z,2.90
2022-09-29T16:02:50.633Z,7.30
2022-09-29T16:05:21.475Z,4.80
2022-09-29T16:08:07.404Z,3.47
2022-09-29T16:10:39.599Z,2.03
2022-09-29T16:13:15.750Z,2.00
2022-09-29T16:15:46.434Z,3.10
2022-09-29T16:18:24.291Z,1.63
2022-09-29T16:20:56.847Z,1.88
2022-09-29T16:23:41.782Z,3.58
2022-09-29T16:26:18.407Z,3.63
2022-09-29T16:29:00.605Z,5.13
2022-09-29T16:31:29.515Z,4.18
2022-09-29T16:34:00.681Z,5.22
2022-09-29T16:36:36.770Z,4.70
2022-09-29T16:39:05.848Z,2.45
2022-09-29T16:41:40.739Z,2.75
2022-09-29T16:44:17.492Z,1.70
2022-09-29T16:46:56.493Z,1.92
2022-09-29T16:49:28.350Z,2.33
2022-09-29T16:51:58.343Z,6.85
2022-09-29T16:54:33.992Z,2.20
2022-09-29T16:57:34.428Z,4.43
2022-09-29T17:00:07.756Z,2.70
2022-09-29T17:02:34.545Z,2.88
2022-09-29T17:05:04.977Z,2.25
2022-09-29T17:07:32.256Z,7.90
2022-09-29T17:10:00.993Z,2.88
2022-09-29T17:12:29.604Z,2.08
2022-09-29T17:14:57.204Z,3.53
2022-09-29T17:17:26.474Z,3.25
2022-09-29T17:19:57.353Z,4.15
2022-09-29T17:22:31.487Z,6.35
2022-09-29T17:24:59.019Z,2.83
2022-09-29T17:27:45.390Z,4.68
2022-09-29T17:30:17.713Z,3.67
2022-09-29T17:32:46.728Z,4.93
2022-09-29T17:35:15.317Z,6.90
2022-09-29T17:37:44.102Z,4.70
2022-09-29T17:40:22.140Z,8.10
2022-09-29T17:42:48.907Z,7.68
2022-09-29T17:45:17.390Z,9.23
2022-09-29T17:47:46.606Z,11.30
2022-09-29T17:50:27.988Z,7.68
2022-09-29T17:52:55.896Z,11.18
2022-09-29T17:55:23.423Z,10.57
2022-09-29T17:57:52.189Z,7.60
2022-09-29T18:00:25.253Z,10.65
2022-09-29T18:02:56.952Z,6.28
2022-09-29T18:05:25.955Z,6.78
2022-09-29T18:07:57.346Z,7.75
2022-09-29T18:10:28.517Z,7.03
2022-09-29T18:12:55.947Z,7.82
2022-09-29T18:15:23.482Z,6.00
2022-09-29T18:17:54.596Z,8.57
2022-09-29T18:20:22.419Z,7.35
2022-09-29T18:22:49.299Z,7.45
2022-09-29T18:25:18.724Z,6.65
2022-09-29T18:27:46.503Z,7.10
2022-09-29T18:30:20.380Z,4.88
2022-09-29T18:32:49.326Z,7.72
2022-09-29T18:35:19.494Z,8.48
2022-09-29T18:37:46.597Z,8.05
2022-09-29T18:40:14.236Z,5.20
2022-09-29T18:42:44.430Z,7.93
2022-09-29T18:45:14.028Z,8.20
2022-09-29T18:47:43.899Z,10.15
2022-09-29T18:50:19.699Z,9.02
2022-09-29T18:52:47.735Z,12.75
2022-09-29T18:55:17.774Z,15.70
2022-09-29T18:57:45.816Z,9.68
2022-09-29T19:00:14.796Z,8.02
2022-09-29T19:02:43.095Z,12.73
2022-09-29T19:05:16.709Z,10.43
2022-09-29T19:07:44.844Z,9.60
2022-09-29T19:10:14.292Z,9.95
2022-09-29T19:12:45.246Z,7.40
2022-09-29T19:15:18.020Z,10.05
2022-09-29T19:17:45.529Z,8.00
2022-09-29T19:20:13.714Z,9.80
2022-09-29T19:22:43.440Z,12.20
2022-09-29T19:25:23.024Z,9.82
2022-09-29T19:27:51.190Z,7.85
2022-09-29T19:30:21.682Z,8.43
2022-09-29T19:32:49.167Z,7.78
2022-09-29T19:35:20.040Z,11.27
2022-09-29T19:37:47.376Z,8.13
2022-09-29T19:40:21.190Z,10.13
2022-09-29T19:42:48.385Z,7.20
2022-09-29T19:45:15.839Z,7.43
2022-09-29T19:47:42.643Z,6.35
2022-09-29T19:50:28.541Z,7.43
2022-09-29T19:52:56.519Z,8.43
2022-09-29T19:55:24.251Z,7.75
2022-09-29T19:57:51.011Z,13.30
2022-09-29T20:00:20.707Z,6.38
2022-09-29T20:02:47.893Z,6.55
2022-09-29T20:05:15.534Z,7.72
2022-09-29T20:07:44.091Z,10.25
2022-09-29T20:10:16.648Z,9.43
2022-09-29T20:15:11.903Z,6.45
2022-09-29T20:17:40.712Z,6.43
2022-09-29T20:20:09.343Z,11.50
2022-09-29T20:22:36.465Z,9.02
2022-09-29T20:25:04.382Z,6.82
2022-09-29T20:27:31.866Z,7.05
2022-09-29T20:29:58.653Z,12.55
2022-09-29T20:32:25.613Z,9.45
2022-09-29T20:34:53.461Z,8.20
2022-09-29T20:37:20.395Z,10.18
2022-09-29T20:39:50.075Z,9.52
2022-09-29T20:42:17.916Z,7.03
2022-09-29T20:44:44.645Z,7.80
2022-09-29T20:47:11.432Z,8.15
2022-09-29T20:49:39.204Z,8.75
2022-09-29T20:52:06.217Z,17.50
2022-09-29T20:54:33.082Z,12.85
2022-09-29T20:57:00.459Z,19.85
2022-09-29T20:59:27.241Z,11.25
2022-09-29T21:01:54.376Z,10.35
2022-09-29T21:04:21.784Z,10.40
2022-09-29T21:06:51.005Z,11.73
2022-09-29T21:09:23.412Z,9.05
2022-09-29T21:14:20.164Z,8.77
2022-09-29T21:16:51.678Z,9.82
2022-09-29T21:19:20.396Z,19.88
2022-09-29T21:21:47.102Z,15.45
2022-09-29T21:24:14.742Z,16.98
2022-09-29T21:26:41.613Z,17.20
2022-09-29T21:29:13.409Z,12.35
2022-09-29T21:31:40.228Z,11.98
2022-09-29T21:34:07.783Z,19.60
2022-09-29T21:36:36.598Z,13.38
2022-09-29T21:39:08.588Z,11.75
2022-09-29T21:44:16.740Z,9.63
2022-09-29T21:46:44.939Z,8.65
2022-09-29T21:49:13.429Z,9.38
2022-09-29T21:51:46.082Z,10.65
2022-09-29T21:54:19.520Z,7.85
2022-09-29T21:56:47.350Z,12.02
2022-09-29T21:59:17.249Z,12.88
2022-09-29T22:01:45.500Z,10.88
2022-09-29T22:04:12.954Z,9.65
2022-09-29T22:06:40.707Z,10.50
2022-09-29T22:09:08.824Z,9.68
2022-09-29T22:11:38.822Z,8.55
2022-09-29T22:14:06.210Z,10.38
2022-09-29T22:16:34.504Z,6.65
2022-09-29T22:19:23.856Z,9.18
2022-09-29T22:21:50.994Z,8.10
2022-09-29T22:24:17.740Z,13.88
2022-09-29T22:26:44.649Z,8.80
2022-09-29T22:29:11.426Z,7.55
2022-09-29T22:31:40.359Z,8.57
2022-09-29T22:34:07.724Z,9.90
2022-09-29T22:36:35.775Z,11.25
2022-09-29T22:39:05.062Z,7.82
2022-09-29T22:41:33.140Z,7.43
2022-09-29T22:44:00.813Z,9.50
2022-09-29T22:46:29.513Z,9.85
2022-09-29T22:48:57.079Z,9.90
2022-09-29T22:51:24.303Z,8.82
2022-09-29T22:53:51.720Z,8.55
2022-09-29T22:56:20.612Z,9.35
2022-09-29T22:58:49.380Z,8.45
2022-09-29T23:01:17.938Z,10.25
2022-09-29T23:03:46.053Z,10.40
2022-09-29T23:06:13.748Z,7.57
2022-09-29T23:08:40.818Z,9.90
2022-09-29T23:11:08.977Z,7.78
2022-09-29T23:13:37.291Z,10.73
2022-09-29T23:16:12.808Z,8.00
2022-09-29T23:18:44.909Z,7.53
2022-09-29T23:21:19.338Z,7.95
2022-09-29T23:24:12.810Z,12.05
2022-09-29T23:26:39.821Z,7.88
2022-09-29T23:29:07.848Z,15.88
2022-09-29T23:31:35.246Z,16.13
2022-09-29T23:34:02.169Z,14.85
2022-09-29T23:36:31.219Z,12.40
2022-09-29T23:39:10.295Z,12.27
2022-09-29T23:41:45.957Z,10.23
2022-09-29T23:44:15.394Z,11.95
2022-09-29T23:46:43.179Z,14.90
2022-09-29T23:49:13.011Z,14.07
2022-09-29T23:51:48.614Z,15.20
2022-09-29T23:54:18.225Z,9.10
2022-09-29T23:56:49.602Z,12.02
2022-09-29T23:59:17.077Z,10.38
